SKCGSKBQ

Guest
Details From SKCG - RAFAEL NUNEZ
To SKBQ - Ernesto Cortissoz
Flight Number -
Tags generated
Created
Modified
Stats Distance 51 nm / 95 km
Max Altitude 1,500 ft / 457 m
Waypoints 3
Social Downloads 6
Likes 0
Share VATSIM

Download

Looking for another format? Having issues loading an existing format? Contact us
Advertisement - Login to hide

Notes

Basic altitude profile: - Ascent Rate: 2500ft/min - Ascent Speed: 250kts - Cruise Altitude: 35000ft - Cruise Speed: 420kts - Descent Rate: 1500ft/min - Descent Speed: 250kts Options: - Use NATs: yes - Use PACOTS: yes - Use low airways: yes - Use high airways: yes

Route

SKCG BAQ SKBQ

ID Type Via Altitude Latitude Longitude Leg Dist Tot Dist Heading (true) Name
O SKCG APT - 0 ft / 0 m 10.44238˚ -75.51296˚ - 0 nm - RAFAEL NUNEZ
BAQ VOR - 1,500 ft / 457 m 10.79667˚ -74.86028˚ 44 nm 44 nm 61° / 61° BARRANQUILLA VOR-DME
O SKBQ APT - 0 ft / 0 m 10.88959˚ -74.78082˚ 7 nm 51 nm 40° / 40° Ernesto Cortissoz

Altitude Profile

Advertisement - Login to hide

SKCG

Details ICAO SKCG (CTG)
Name RAFAEL NUNEZ
Region Colombia
Timezone America/Bogota (UTC-5.0)
Stats Elevation 4 ft / 1 m (AMSL)
Location 10.442379° -75.512961°
Runways 1
Magnetic Variation 7.263° W

METAR

SKCG 261700Z 27008KT 9999 FEW017 SCT070 30/27 A2982 REDZ

Decode

TAF

TAF SKCG 261100Z 261212 04004KT 9999 FEW017 TEMPO 2612/2613 8000 VCFG SCT010 TEMPO 2618/2624 32008KT SCT018TCU TEMPO 2620/2623 7000 RA SCT015CB TEMPO 2700/2702 8000 DZ SCT014TCU TEMPO 2710/2712 7000 VCFG SCT010 TX34/2618Z TN25/2711Z

Decode

Departure Runways

ID Width Length Bearing (true) Bearing (mag) Surface Threshold Offset Overrun Length
01 148 ft / 45 m 8,584 ft / 2,616 m 2.31° 9.57° Asphalt 0 ft / 0 m 180 ft / 55 m
19 148 ft / 45 m 8,584 ft / 2,616 m 182.31° 189.57° Asphalt 190 ft / 58 m 0 ft / 0 m

SKBQ

Details ICAO SKBQ (BAQ)
Name Ernesto Cortissoz
Region Colombia
Timezone America/Bogota (UTC-5.0)
Stats Elevation 98 ft / 30 m (AMSL)
Location 10.889589° -74.780820°
Runways 1
Magnetic Variation 7.784° W

METAR

SKBQ 261700Z 20007KT 9999 FEW015 SCT200 33/26 A2982

Decode

TAF

Not found

Destination Runways

ID Width Length Bearing (true) Bearing (mag) Surface Threshold Offset Overrun Length
05 148 ft / 45 m 9,863 ft / 3,006 m 40.09° 47.87° Concrete 0 ft / 0 m 105 ft / 32 m
23 148 ft / 45 m 9,863 ft / 3,006 m 220.09° 227.87° Concrete 0 ft / 0 m 0 ft / 0 m

Approach Navaids

Runway Type Ident Frequency Range Bearing (true) Bearing (mag) Slope Elevation
05 Localiser IBAQ 109.90 MHz 18 nm / 33 km 39.98° 47.76° - 98 ft / 30 m (AMSL)
05 Glidescope IBAQ 109.90 MHz 10 nm / 19 km 40.09° 47.88° 3.00° 98 ft / 30 m (AMSL)

Popular Alternatives